Pawcatuck, CT (06379)

7:02 AM EDT on March 30, 2015 (GMT -0400)
APRSWXNET Westerly RI US | | Change Station
CLOSE
Current Station
Personal Weather Station
Location: Westerly, RI
Elevation: 68 ft
Nearby Weather Stations

Elev 68 ft 41.35 °N, 71.82 °W | Updated 56 minutes ago

Partly Cloudy
Partly Cloudy
35 °F
Feels Like 35 °F
N
0
Wind Variable Wind from SW
Gusts 7.0 mph

Today
High -- | Low -- °F
--% Chance of Precip.
Yesterday
High -- | Low -- °F
Precip. -- in
6:34 AM 7:10 PM
Waxing Gibbous, 79% visible
Pressure 29.99 in
Visibility 10.0 miles
Clouds Few 12000 ft
Windchill 35 °F
Dew Point 29 °F
Humidity 77%
Rainfall in
Snow Depth Not available.
UV 0 out of 12
Pollen 2.30 out of 12
Air Quality Not available.
Flu Activity Not available.
METAR KWST 301053Z AUTO 20007KT 10SM FEW120 03/M02 A2999 RMK AO2 SLP154 T00281022

More Conditions Fewer Conditions

Pressure 29.99 in
Visibility 10.0 miles
Clouds Few 12000 ft
Windchill 35 °F
Dew Point 29 °F
Humidity 77%
Rainfall in
Snow Depth Not available.
UV 0 out of 12
Pollen 2.30 out of 12
Air Quality Not available.
Flu Activity Not available.
METAR KWST 301053Z AUTO 20007KT 10SM FEW120 03/M02 A2999 RMK AO2 SLP154 T00281022

More Conditions Fewer Conditions

10-Day Weather Forecast

Almanac

Astronomy

Mar. 30, 2015 Rise Set
Actual Time
Civil Twilight
Nautical Twilight
Astronomical Twilight
Moon
Length of Visible Light
Length of Day
Tomorrow will be .
, % of the Moon is Illuminated

Today's Extremes

State Highs State Lows

Community

WunderPhotos

Upload Photos

1,809,456 photos uploaded!

WunderBlogs® & News

Nearby

Air Quality

  Air Quality AQ Index Pollutant
Not available.

Snow Depth

Station Depth Elevation

Earthquake Activity

City Distance Mag. Time & Date
Minimum magnitude displayed is 2.5.

Coastal Water Temperatures

Place Temperature

Stations

Nearby Weather Stations

Station Location Temp. Windchill Dew Point Humidity Wind Precip. Elev Updated Type